St. JULIÀ DE VILATORTA (Osona)





Hora UTC 07:35
Temperatura 19.5 ºC
Humitat 90.5 %
Pressió 1009.1 hPa
Pluja 3.2 mm
Velocitat vent 5.0 km/h
Direcció vent S
Radiació solar 17.3 W/m²

Dades diàries 2024-07-21



Hora UTC (hivern +1h; estiu +2h)
Temperatura (ºC) Humitat (%) Pressió (hPa) Velocitat vent (km/h) Precipitació (mm) Radiació solar (W/m²)
Hora UTC Aire Humitat Pressió Vel. Dir. Vel. Max Dir. Intent. màx 5 min. Rad. Sol.
00:05 20.8 62.0 1007.3 0.6 SSE 0.6 SSW 0.0 0.7
00:10 20.8 62.4 1007.4 1.7 S 3.3 SSE 0.0 0.6
00:15 20.7 61.8 1007.3 2.2 SSE 3.4 SSE 0.0 0.5
00:20 20.8 63.3 1007.3 1.3 SSE 2.5 SSW 0.0 0.4
00:25 20.7 62.9 1007.3 2.0 SSE 3.7 ENE 0.0 0.2
00:30 20.6 65.9 1007.2 2.7 ESE 4.8 E 0.0 0.5
00:35 20.6 65.7 1007.2 2.8 E 5.8 E 0.0 0.2
00:40 20.6 64.6 1007.1 4.5 ENE 7.2 E 0.0 0.7
00:45 20.6 63.6 1007.1 4.3 E 6.0 ENE 0.0 0.7
00:50 20.7 62.5 1007.1 4.2 ESE 6.9 E 0.0 0.7
00:55 20.7 61.9 1007.2 2.8 SSE 5.3 ESE 0.0 0.6
01:00 20.6 63.2 1007.2 1.9 WSW 4.4 S 0.0 0.1
01:05 20.5 63.4 1007.2 1.4 WNW 2.6 NNW 0.0 0.5
01:10 20.4 64.2 1007.2 2.2 SSW 3.9 SSW 0.0 0.3
01:15 20.2 65.7 1007.3 2.3 SSW 3.7 SSW 0.0 0.3
01:20 20.1 66.5 1007.3 2.5 ESE 4.7 E 0.0 0.4
01:25 20.0 67.9 1007.4 3.0 S 5.2 SSW 0.0 0.3
01:30 20.0 69.5 1007.5 2.1 SSW 6.0 W 0.0 0.4
01:35 20.0 69.6 1007.5 2.4 SSE 4.7 S 0.0 0.3
01:40 20.1 73.2 1007.4 2.7 ESE 5.7 ESE 0.0 0.4
01:45 20.1 76.2 1007.4 3.2 E 5.1 E 0.0 0.6
01:50 20.1 76.3 1007.3 3.7 E 5.7 ESE 0.0 0.6
01:55 20.1 76.3 1007.2 3.9 E 6.9 ENE 0.0 0.7
02:00 20.2 76.5 1007.1 3.7 ESE 6.5 ESE 0.0 0.7
02:05 20.3 77.9 1007.1 3.8 SE 7.1 SE 0.0 0.7
02:10 20.4 77.9 1007.1 2.6 ESE 5.5 SE 0.0 0.9
02:15 20.4 77.4 1007.2 2.9 E 4.5 E 0.0 1.2
02:20 20.3 76.9 1007.3 1.4 SE 2.1 SSW 0.0 0.5
02:25 20.3 77.0 1007.3 3.1 SSE 5.1 SE 0.0 0.3
02:30 20.3 76.8 1007.3 2.2 SE 4.0 SE 0.0 0.2
02:35 20.4 76.9 1007.4 2.0 SSE 4.2 S 0.0 0.2
02:40 20.4 76.8 1007.4 2.0 ESE 4.0 ESE 0.0 0.8
02:45 20.5 76.5 1007.3 2.8 ENE 4.7 NE 0.0 1.2
02:50 20.5 76.6 1007.4 2.1 N 5.5 NNW 0.0 1.0
02:55 20.6 77.8 1007.4 2.6 WNW 4.1 NW 0.0 0.4
03:00 20.5 77.1 1007.4 1.2 SSW 2.6 W 0.0 0.0
03:05 20.3 78.3 1007.5 1.5 WSW 4.5 WSW 0.0 0.3
03:10 20.2 79.1 1007.7 2.9 SE 6.2 WNW 0.0 0.3
03:15 20.1 80.2 1007.7 1.6 SE 4.7 ESE 0.0 0.6
03:20 20.4 79.5 1007.8 1.9 SSE 11.1 ESE 0.0 1.1
03:25 20.7 78.4 1007.9 4.2 SE 8.1 SSE 0.0 0.9
03:30 21.1 76.7 1008.0 1.8 ESE 5.1 SSE 0.0 1.1
03:35 21.3 76.6 1008.0 3.3 NNE 7.6 NNE 0.0 0.7
03:40 21.4 76.4 1008.0 2.6 NNE 5.7 ENE 0.0 0.4
03:45 21.4 77.1 1008.0 2.1 W 4.8 S 0.0 0.4
03:50 21.4 77.9 1007.9 4.1 ENE 8.5 NE 0.0 0.5
03:55 21.5 78.1 1007.9 6.1 E 22.7 ESE 0.0 0.2
04:00 21.7 78.3 1007.8 4.8 ESE 17.7 E 0.0 0.2
04:05 21.7 78.3 1007.8 3.4 SE 10.1 NNE 0.0 0.0
04:10 21.7 78.3 1007.7 2.6 SE 8.0 SSE 0.0 0.1
04:15 21.7 78.5 1007.7 2.8 SE 8.2 SSE 0.0 0.1
04:20 21.7 78.6 1007.9 2.5 W 10.5 ESE 0.0 0.2
04:25 21.6 78.9 1008.0 3.4 NW 6.3 WNW 0.0 0.3
04:30 21.6 79.2 1008.0 2.3 W 5.1 W 0.0 1.2
04:35 21.5 79.5 1008.0 3.9 S 10.5 SSE 0.0 2.2
04:40 21.7 79.5 1008.0 3.7 E 8.3 E 0.0 2.7
04:45 21.7 79.4 1008.1 5.0 ENE 11.6 E 0.0 3.8
04:50 21.7 79.3 1008.1 4.2 NNE 7.7 NNE 0.0 3.1
04:55 21.7 79.5 1008.1 1.8 N 4.1 NNW 0.0 4.0
05:00 21.7 79.5 1008.2 2.8 N 5.9 N 0.0 7.0
05:05 21.7 79.9 1008.2 5.5 N 8.9 NNE 0.0 13.6
05:10 21.7 80.3 1008.2 5.3 N 8.7 NNE 0.0 13.4
05:15 21.7 80.8 1008.2 4.8 N 8.6 N 0.0 17.4
05:20 21.7 81.0 1008.2 4.3 NNE 8.7 NNE 0.0 17.0
05:25 21.7 81.4 1008.2 4.0 NNE 7.7 N 0.0 22.4
05:30 21.6 81.3 1008.2 4.2 ENE 8.3 NE 0.0 37.9
05:35 21.7 80.9 1008.2 3.3 SSE 6.7 SE 0.0 56.2
05:40 21.9 80.1 1008.3 4.9 SSW 6.9 SSW 0.0 52.0
05:45 22.0 79.6 1008.3 2.5 SW 6.0 SW 0.0 44.4
05:50 22.0 79.4 1008.4 4.3 SSW 6.6 SSW 0.0 65.9
05:55 22.1 79.2 1008.4 5.1 S 10.3 SSE 0.0 52.5
06:00 22.2 78.5 1008.5 8.4 SSE 13.2 SSE 0.0 45.0
06:05 22.1 78.6 1008.6 8.5 SSE 17.0 SSE 0.0 34.2
06:10 22.0 79.0 1008.6 10.0 SSE 17.9 S 0.0 36.3
06:15 21.9 79.5 1008.7 8.9 SSE 16.7 SSE 0.0 41.1
06:20 21.8 79.5 1008.7 9.9 SSE 20.9 SSE 0.0 39.5
06:25 21.7 80.2 1008.8 10.7 SSE 23.1 SSE 0.0 34.5
06:30 21.6 80.2 1008.8 12.2 SSE 18.6 SSE 0.0 42.5
06:35 21.7 80.2 1008.7 11.3 SSE 17.3 SSE 0.0 61.6
06:40 21.7 80.0 1008.7 8.4 SSE 15.2 S 0.0 121.2
06:45 21.9 79.3 1008.7 8.3 SSE 13.6 SSE 0.0 212.5
06:50 22.2 78.0 1008.7 8.1 SSE 11.5 SSE 0.0 178.5
06:55 22.3 77.4 1008.7 7.6 SSE 11.7 SSE 0.0 115.3
07:00 22.3 78.5 1008.9 7.0 S 11.2 S 0.0 35.9
07:05 22.2 79.6 1008.7 4.3 S 8.4 SSE 0.0 44.8
07:10 22.1 81.2 1008.6 3.5 W 8.4 WSW 0.2 43.4
07:15 21.7 83.2 1008.6 3.5 W 7.9 WSW 0.4 31.1
07:20 21.3 85.5 1008.9 5.5 WNW 17.7 WNW 1.1 5.5
07:25 20.6 86.8 1009.0 6.8 WNW 15.7 WNW 0.8 4.0
07:30 19.9 88.2 1009.1 6.7 W 15.7 NW 0.5 16.9
07:35 19.5 90.5 1009.1 5.0 S 14.8 SSW 0.2 17.3
Màxima 22.4 90.5 1009.1 12.2 SSE 23.1 SSE 1.1 212.5
Mínima 19.4 61.8 1007.1
Total 3.2